createdAt,value
2022-11-14T00:00:55.215Z,67.75
2022-11-14T00:04:11.021Z,70.00
2022-11-14T00:07:26.246Z,57.25
2022-11-14T00:10:42.177Z,72.25
2022-11-14T00:13:58.263Z,73.00
2022-11-14T00:17:14.195Z,67.00
2022-11-14T00:20:30.073Z,71.25
2022-11-14T00:23:45.097Z,75.75
2022-11-14T00:27:01.309Z,74.50
2022-11-14T00:30:17.365Z,66.25
2022-11-14T00:33:33.147Z,76.50
2022-11-14T00:36:48.281Z,73.50
2022-11-14T00:40:04.689Z,81.50
2022-11-14T00:43:20.280Z,73.00
2022-11-14T00:46:36.338Z,71.50
2022-11-14T00:49:52.327Z,74.00
2022-11-14T00:53:08.169Z,68.25
2022-11-14T00:56:23.999Z,75.00
2022-11-14T00:59:39.233Z,73.75
2022-11-14T01:02:58.358Z,73.00
2022-11-14T01:06:15.828Z,76.00
2022-11-14T01:09:31.106Z,70.75
2022-11-14T01:12:47.217Z,75.25
2022-11-14T01:16:03.068Z,75.75
2022-11-14T01:19:18.308Z,71.75
2022-11-14T01:22:37.136Z,81.25
2022-11-14T01:25:52.937Z,74.00
2022-11-14T01:29:07.980Z,69.50
2022-11-14T01:32:23.176Z,71.00
2022-11-14T01:35:39.228Z,74.75
2022-11-14T01:38:55.391Z,81.75
2022-11-14T01:42:11.212Z,78.75
2022-11-14T01:45:45.871Z,78.75
2022-11-14T01:49:21.021Z,74.75
2022-11-14T01:52:37.617Z,78.25
2022-11-14T01:55:53.196Z,77.25
2022-11-14T01:59:11.620Z,78.00
2022-11-14T02:02:27.324Z,74.50
2022-11-14T02:05:43.291Z,75.75
2022-11-14T02:09:05.136Z,77.50
2022-11-14T02:12:20.229Z,74.75
2022-11-14T02:15:36.445Z,75.00
2022-11-14T02:18:52.150Z,75.00
2022-11-14T02:22:07.983Z,70.00
2022-11-14T02:25:24.081Z,76.50
2022-11-14T02:28:40.492Z,72.50
2022-11-14T02:31:56.218Z,75.25
2022-11-14T02:35:12.205Z,80.25
2022-11-14T02:38:28.627Z,76.50
2022-11-14T02:41:45.236Z,71.25
2022-11-14T02:45:01.177Z,79.50
2022-11-14T02:48:16.179Z,82.00
2022-11-14T02:51:32.217Z,76.50
2022-11-14T02:54:54.127Z,76.00
2022-11-14T02:58:10.138Z,74.50
2022-11-14T03:01:25.492Z,71.50
2022-11-14T03:04:41.344Z,75.50
2022-11-14T03:07:57.191Z,81.00
2022-11-14T03:11:13.287Z,78.00
2022-11-14T03:14:31.351Z,70.50
2022-11-14T03:17:47.407Z,81.00
2022-11-14T03:21:14.145Z,83.25
2022-11-14T03:24:30.121Z,79.50
2022-11-14T03:27:46.352Z,78.50
2022-11-14T03:31:02.354Z,75.75
2022-11-14T03:34:18.251Z,76.75
2022-11-14T03:37:34.248Z,82.50
2022-11-14T03:40:50.752Z,69.25
2022-11-14T03:44:06.230Z,73.25
2022-11-14T03:47:22.378Z,68.00
2022-11-14T03:50:38.470Z,77.75
2022-11-14T03:53:54.133Z,79.50
2022-11-14T03:57:09.378Z,79.75
2022-11-14T04:00:25.284Z,76.25
2022-11-14T04:03:40.300Z,75.25
2022-11-14T04:06:56.504Z,76.25
2022-11-14T04:10:12.377Z,80.75
2022-11-14T04:13:28.365Z,82.00
2022-11-14T04:16:44.228Z,79.00
2022-11-14T04:20:00.142Z,79.00
2022-11-14T04:23:16.210Z,67.50
2022-11-14T04:26:31.424Z,87.00
2022-11-14T04:29:47.385Z,79.00
2022-11-14T04:33:03.469Z,85.50
2022-11-14T04:36:19.175Z,70.50
2022-11-14T04:39:35.246Z,74.75
2022-11-14T04:42:51.453Z,74.50
2022-11-14T04:46:07.337Z,76.25
2022-11-14T04:49:23.518Z,78.75
2022-11-14T04:52:39.793Z,82.25
2022-11-14T04:55:55.732Z,68.00
2022-11-14T04:59:11.232Z,89.00
2022-11-14T05:02:27.448Z,71.00
2022-11-14T05:05:43.200Z,78.00
2022-11-14T05:08:59.048Z,70.50
2022-11-14T05:12:14.357Z,80.75
2022-11-14T05:15:30.446Z,76.00
2022-11-14T05:18:47.236Z,75.50
2022-11-14T05:22:03.102Z,82.75
2022-11-14T05:25:19.726Z,61.75
2022-11-14T05:28:35.202Z,76.25
2022-11-14T05:31:51.267Z,79.25
2022-11-14T05:35:07.802Z,84.50
2022-11-14T05:38:23.816Z,87.25
2022-11-14T05:41:39.569Z,84.50
2022-11-14T05:44:55.068Z,81.00
2022-11-14T05:48:11.657Z,77.00
2022-11-14T05:51:27.352Z,62.00
2022-11-14T05:54:43.797Z,79.50
2022-11-14T05:57:59.633Z,84.00
2022-11-14T06:01:17.751Z,79.00
2022-11-14T06:04:33.617Z,86.00
2022-11-14T06:07:56.800Z,92.75
2022-11-14T06:11:19.577Z,83.50
2022-11-14T06:14:35.227Z,85.00
2022-11-14T06:17:52.982Z,86.75
2022-11-14T06:21:12.763Z,67.25
2022-11-14T06:24:28.318Z,80.75
2022-11-14T06:27:44.634Z,84.00
2022-11-14T06:31:01.586Z,73.00
2022-11-14T06:34:17.087Z,71.50
2022-11-14T06:37:33.827Z,74.75
2022-11-14T06:40:50.520Z,81.25
2022-11-14T06:44:07.850Z,76.50
2022-11-14T06:47:23.545Z,85.25
2022-11-14T06:50:39.347Z,80.00
2022-11-14T06:53:54.449Z,82.00
2022-11-14T06:57:10.326Z,81.25
2022-11-14T07:00:26.700Z,86.75
2022-11-14T07:03:43.078Z,89.75
2022-11-14T07:06:58.487Z,83.75
2022-11-14T07:10:14.546Z,76.25
2022-11-14T07:13:31.443Z,87.00
2022-11-14T07:16:48.004Z,81.75
2022-11-14T07:20:03.850Z,79.50
2022-11-14T07:23:22.812Z,82.50
2022-11-14T07:26:39.523Z,84.50
2022-11-14T07:29:56.172Z,83.25
2022-11-14T07:33:11.392Z,79.00
2022-11-14T07:36:27.917Z,74.75
2022-11-14T07:39:43.419Z,80.00
2022-11-14T07:43:01.005Z,87.75
2022-11-14T07:46:17.786Z,89.25
2022-11-14T07:49:34.494Z,87.50
2022-11-14T07:52:54.017Z,80.25
2022-11-14T07:56:10.039Z,89.75
2022-11-14T07:59:25.795Z,86.75
2022-11-14T08:02:41.337Z,87.25
2022-11-14T08:06:07.970Z,82.25
2022-11-14T08:09:23.586Z,94.67
2022-11-14T08:12:40.091Z,89.00
2022-11-14T08:15:55.527Z,85.33
2022-11-14T08:19:11.228Z,78.75
2022-11-14T08:22:26.663Z,74.00
2022-11-14T08:25:42.573Z,79.50
2022-11-14T08:28:58.321Z,85.25
2022-11-14T08:32:15.593Z,79.75
2022-11-14T08:35:32.695Z,74.25
2022-11-14T08:38:51.359Z,85.50
2022-11-14T08:42:07.447Z,87.00
2022-11-14T08:45:23.457Z,72.50
2022-11-14T08:48:38.414Z,84.00
2022-11-14T08:51:53.970Z,83.75
2022-11-14T08:55:09.439Z,75.00
2022-11-14T08:58:28.950Z,81.25
2022-11-14T09:01:44.352Z,83.75
2022-11-14T09:05:00.799Z,79.50
2022-11-14T09:08:16.542Z,72.00
2022-11-14T09:11:32.186Z,70.00
2022-11-14T09:14:47.531Z,83.50
2022-11-14T09:18:03.686Z,72.25
2022-11-14T09:21:19.685Z,60.00
2022-11-14T09:24:35.584Z,80.50
2022-11-14T09:27:51.540Z,73.50
2022-11-14T09:31:08.653Z,79.50
2022-11-14T09:34:24.229Z,80.25
2022-11-14T09:37:40.728Z,77.00
2022-11-14T09:41:11.005Z,68.75
2022-11-14T09:44:26.672Z,77.50
2022-11-14T09:47:50.813Z,77.00
2022-11-14T09:51:08.250Z,69.50
2022-11-14T09:54:27.109Z,68.25
2022-11-14T09:57:44.170Z,69.50
2022-11-14T10:01:25.010Z,69.00
2022-11-14T10:05:12.486Z,75.75
2022-11-14T10:08:46.001Z,67.50
2022-11-14T10:12:13.351Z,71.50
2022-11-14T10:15:34.170Z,72.00
2022-11-14T10:19:42.390Z,70.00
2022-11-14T10:23:17.513Z,59.00
2022-11-14T10:26:35.483Z,65.25
2022-11-14T10:30:36.765Z,57.80
2022-11-14T10:34:01.762Z,68.40
2022-11-14T10:37:42.453Z,62.00
2022-11-14T10:41:02.707Z,48.40
2022-11-14T10:44:25.187Z,48.20
2022-11-14T10:47:41.882Z,56.40
2022-11-14T10:51:36.304Z,67.00
2022-11-14T10:54:56.450Z,64.20
2022-11-14T10:58:14.844Z,62.60
2022-11-14T11:01:37.044Z,58.60
2022-11-14T11:04:52.837Z,67.60
2022-11-14T11:08:42.558Z,64.20
2022-11-14T11:12:01.810Z,57.80
2022-11-14T11:15:25.082Z,61.40
2022-11-14T11:18:40.721Z,53.80
2022-11-14T11:21:56.630Z,63.40
2022-11-14T11:25:27.137Z,57.40
2022-11-14T11:28:42.878Z,60.80
2022-11-14T11:31:58.905Z,59.60
2022-11-14T11:35:16.260Z,54.80
2022-11-14T11:38:32.869Z,61.00
2022-11-14T11:45:24.788Z,57.60
2022-11-14T11:48:40.871Z,59.20
2022-11-14T11:51:57.092Z,53.80
2022-11-14T11:55:21.935Z,47.20
2022-11-14T11:58:50.455Z,54.60
2022-11-14T12:02:25.865Z,54.60
2022-11-14T12:06:16.574Z,48.80
2022-11-14T12:13:48.447Z,39.60
2022-11-14T12:17:39.001Z,50.60
2022-11-14T12:21:10.105Z,36.00
2022-11-14T12:24:53.193Z,36.20
2022-11-14T12:28:32.500Z,48.20
2022-11-14T12:31:47.725Z,40.80
2022-11-14T12:35:04.769Z,37.40
2022-11-14T12:38:21.177Z,52.80
2022-11-14T12:41:38.012Z,49.20
2022-11-14T12:44:53.979Z,43.00
2022-11-14T12:48:26.980Z,51.20
2022-11-14T12:51:45.560Z,43.60
2022-11-14T12:55:01.778Z,43.80
2022-11-14T12:59:15.120Z,47.00
2022-11-14T13:02:44.753Z,46.40
2022-11-14T13:06:04.715Z,52.00
2022-11-14T13:09:20.677Z,51.80
2022-11-14T13:12:55.275Z,52.00
2022-11-14T13:16:42.043Z,49.20
2022-11-14T13:20:16.486Z,52.00
2022-11-14T13:23:40.791Z,48.80
2022-11-14T13:27:16.807Z,48.80
2022-11-14T13:31:10.504Z,42.80
2022-11-14T13:34:33.488Z,52.00
2022-11-14T13:37:55.715Z,47.00
2022-11-14T13:41:47.468Z,48.00
2022-11-14T13:45:22.238Z,46.00
2022-11-14T13:48:48.533Z,51.40
2022-11-14T13:52:04.969Z,51.80
2022-11-14T13:55:38.369Z,43.40
2022-11-14T13:58:53.686Z,47.20
2022-11-14T14:02:26.120Z,44.00
2022-11-14T14:06:11.089Z,52.20
2022-11-14T14:09:33.629Z,55.00
2022-11-14T14:13:34.908Z,41.20
2022-11-14T14:17:10.279Z,56.60
2022-11-14T14:20:43.556Z,44.60
2022-11-14T14:24:21.323Z,47.00
2022-11-14T14:27:55.470Z,57.80
2022-11-14T14:31:12.699Z,43.40
2022-11-14T14:34:30.100Z,43.20
2022-11-14T14:37:50.818Z,49.40
2022-11-14T14:41:06.729Z,48.40
2022-11-14T14:44:24.086Z,54.60
2022-11-14T14:47:41.254Z,52.60
2022-11-14T14:50:57.995Z,52.20
2022-11-14T14:54:26.984Z,59.20
2022-11-14T14:57:42.955Z,51.80
2022-11-14T15:00:59.808Z,73.25
2022-11-14T15:04:16.163Z,63.40
2022-11-14T15:07:31.665Z,65.75
2022-11-14T15:10:46.979Z,48.80
2022-11-14T15:14:02.923Z,64.20
2022-11-14T15:17:18.861Z,46.40
2022-11-14T15:20:34.631Z,45.40
2022-11-14T15:24:01.218Z,53.20
2022-11-14T15:27:18.184Z,37.20
2022-11-14T15:30:37.262Z,49.80
2022-11-14T15:34:04.739Z,64.20
2022-11-14T15:37:21.540Z,64.00
2022-11-14T15:40:39.461Z,55.60
2022-11-14T15:44:01.904Z,64.40
2022-11-14T15:47:40.066Z,64.25
2022-11-14T15:50:55.410Z,68.75
2022-11-14T15:54:31.274Z,70.50
2022-11-14T15:57:52.022Z,56.60
2022-11-14T16:01:23.311Z,51.80
2022-11-14T16:04:44.380Z,53.40
2022-11-14T16:08:02.530Z,56.80
2022-11-14T16:11:17.591Z,52.40
2022-11-14T16:14:34.273Z,52.00
2022-11-14T16:17:50.404Z,47.20
2022-11-14T16:21:18.645Z,51.40
2022-11-14T16:24:34.434Z,65.20
2022-11-14T16:27:50.665Z,72.00
2022-11-14T16:31:11.833Z,60.80
2022-11-14T16:34:28.113Z,64.80
2022-11-14T16:37:44.250Z,59.75
2022-11-14T16:41:00.468Z,53.20
2022-11-14T16:44:17.098Z,52.00
2022-11-14T16:47:32.961Z,63.00
2022-11-14T16:50:52.859Z,45.20
2022-11-14T16:54:12.636Z,57.80
2022-11-14T16:57:29.298Z,47.50
2022-11-14T17:00:44.978Z,53.40
2022-11-14T17:04:01.232Z,50.40
2022-11-14T17:07:22.611Z,79.75
2022-11-14T17:10:45.533Z,77.50
2022-11-14T17:14:00.944Z,68.75
2022-11-14T17:17:16.810Z,70.50
2022-11-14T17:20:32.845Z,63.00
2022-11-14T17:23:54.362Z,62.50
2022-11-14T17:27:10.149Z,61.00
2022-11-14T17:30:25.967Z,50.00
2022-11-14T17:33:42.185Z,62.00
2022-11-14T17:36:57.960Z,69.75
2022-11-14T17:40:15.664Z,56.25
2022-11-14T17:43:39.149Z,60.50
2022-11-14T17:46:55.908Z,53.50
2022-11-14T17:50:11.997Z,53.75
2022-11-14T17:53:28.041Z,50.25
2022-11-14T17:56:48.564Z,60.75
2022-11-14T18:00:07.317Z,47.00
2022-11-14T18:03:23.019Z,50.25
2022-11-14T18:06:38.761Z,54.00
2022-11-14T18:09:54.877Z,60.00
2022-11-14T18:13:10.899Z,62.75
2022-11-14T18:16:44.545Z,44.25
2022-11-14T18:20:03.218Z,48.50
2022-11-14T18:23:19.078Z,66.75
2022-11-14T18:26:34.939Z,51.75
2022-11-14T18:29:50.921Z,63.25
2022-11-14T18:33:06.877Z,66.50
2022-11-14T18:36:23.039Z,55.50
2022-11-14T18:39:38.874Z,63.75
2022-11-14T18:42:55.077Z,61.50
2022-11-14T18:46:11.664Z,64.75
2022-11-14T18:49:28.448Z,60.75
2022-11-14T18:52:43.851Z,58.20
2022-11-14T18:56:03.772Z,51.60
2022-11-14T18:59:20.246Z,49.25
2022-11-14T19:02:36.184Z,59.00
2022-11-14T19:05:52.138Z,56.20
2022-11-14T19:09:11.627Z,61.50
2022-11-14T19:12:28.234Z,60.00
2022-11-14T19:15:43.880Z,60.00
2022-11-14T19:19:00.009Z,58.75
2022-11-14T19:22:20.326Z,44.40
2022-11-14T19:25:38.118Z,57.60
2022-11-14T19:28:54.307Z,59.75
2022-11-14T19:32:10.088Z,61.50
2022-11-14T19:35:26.096Z,56.25
2022-11-14T19:38:42.257Z,61.50
2022-11-14T19:41:57.819Z,51.25
2022-11-14T19:45:13.010Z,65.00
2022-11-14T19:48:28.949Z,53.00
2022-11-14T19:51:44.203Z,56.60
2022-11-14T19:54:59.862Z,53.80
2022-11-14T19:58:16.212Z,61.80
2022-11-14T20:01:32.001Z,56.80
2022-11-14T20:04:47.929Z,52.80
2022-11-14T20:08:04.097Z,50.60
2022-11-14T20:11:20.102Z,52.60
2022-11-14T20:14:36.200Z,60.20
2022-11-14T20:17:52.018Z,53.60
2022-11-14T20:21:10.963Z,55.20
2022-11-14T20:24:26.914Z,61.75
2022-11-14T20:27:43.187Z,40.20
2022-11-14T20:31:02.786Z,57.80
2022-11-14T20:34:17.976Z,53.20
2022-11-14T20:37:33.795Z,49.80
2022-11-14T20:40:54.924Z,48.80
2022-11-14T20:44:10.920Z,59.00
2022-11-14T20:47:27.543Z,61.50
2022-11-14T20:50:43.036Z,59.75
2022-11-14T20:53:59.130Z,57.80
2022-11-14T20:57:14.861Z,59.20
2022-11-14T21:00:30.058Z,52.60
2022-11-14T21:03:46.246Z,49.80
2022-11-14T21:07:02.188Z,52.00
2022-11-14T21:10:37.689Z,56.60
2022-11-14T21:13:59.164Z,47.80
2022-11-14T21:17:15.177Z,57.40
2022-11-14T21:20:31.074Z,56.60
2022-11-14T21:23:47.449Z,56.80
2022-11-14T21:27:03.887Z,50.00
2022-11-14T21:30:18.920Z,50.40
2022-11-14T21:33:35.328Z,53.80
2022-11-14T21:36:51.237Z,51.80
2022-11-14T21:40:07.721Z,52.00
2022-11-14T21:43:23.376Z,49.40
2022-11-14T21:46:38.882Z,43.40
2022-11-14T21:50:00.935Z,48.60
2022-11-14T21:53:17.077Z,35.40
2022-11-14T21:56:34.348Z,41.80
2022-11-14T21:59:50.234Z,42.20
2022-11-14T22:03:24.421Z,33.00
2022-11-14T22:06:43.754Z,43.80
2022-11-14T22:09:59.183Z,47.80
2022-11-14T22:13:15.406Z,42.80
2022-11-14T22:16:31.532Z,47.40
2022-11-14T22:19:47.066Z,41.00
2022-11-14T22:23:03.019Z,41.60
2022-11-14T22:26:19.177Z,41.20
2022-11-14T22:29:35.001Z,46.00
2022-11-14T22:32:51.133Z,47.80
2022-11-14T22:36:14.408Z,41.80
2022-11-14T22:39:30.017Z,40.80
2022-11-14T22:42:45.928Z,45.40
2022-11-14T22:46:02.052Z,45.00
2022-11-14T22:49:21.103Z,47.40
2022-11-14T22:52:37.386Z,37.20
2022-11-14T22:55:53.156Z,40.40
2022-11-14T22:59:09.463Z,40.60
2022-11-14T23:02:24.833Z,44.60
2022-11-14T23:05:39.985Z,42.20
2022-11-14T23:08:55.493Z,40.20
2022-11-14T23:12:12.279Z,45.80
2022-11-14T23:15:28.199Z,38.60
2022-11-14T23:18:44.354Z,37.60
2022-11-14T23:22:01.111Z,48.20
2022-11-14T23:25:17.163Z,43.60
2022-11-14T23:28:33.318Z,55.20
2022-11-14T23:31:49.273Z,39.60
2022-11-14T23:35:05.338Z,44.00
2022-11-14T23:38:21.158Z,49.80
2022-11-14T23:41:37.223Z,43.20
2022-11-14T23:44:53.048Z,46.40
2022-11-14T23:48:09.096Z,45.20
2022-11-14T23:51:25.073Z,53.20
2022-11-14T23:54:40.215Z,49.40
2022-11-14T23:57:56.159Z,39.60
